Time;durP1;ratioP1;P1;durP2;ratioP2;P2;SDS_P1;SDS_P2;PMS_P1;PMS_P2;Temp;Humidity;BMP_temperature;BMP_pressure;BME280_temperature;BME280_humidity;BME280_pressure;Samples;Min_cycle;Max_cycle;Signal;HPM_P1;HPM_P2
2023/12/06 00:01:12;;;;;;;;;;;;;;;6.72;69.88;100260.81;5078335;28;20297;-76
2023/12/06 00:04:02;;;;;;;;;;;;;;;6.76;69.53;100267.22;5072687;28;19917;-76
2023/12/06 00:06:54;;;;;;;;;;;;;;;6.71;69.52;100263.81;5073650;28;19916;-75
2023/12/06 00:09:46;;;;;;;;;;;;;;;6.64;69.50;100261.53;5072196;28;19920;-77
2023/12/06 00:12:35;;;;;;;;;;;;;;;6.63;69.04;100257.22;5074412;28;19917;-76
2023/12/06 00:15:27;;;;;;;;;;;;;;;6.30;70.01;100248.38;5060317;28;19916;-76
2023/12/06 00:18:19;;;;;;;;;;;;;;;6.44;70.78;100257.31;5072397;28;19916;-75
2023/12/06 00:21:11;;;;;;;;;;;;;;;6.46;70.61;100262.41;5074218;28;20313;-76
2023/12/06 00:24:03;;;;;;;;;;;;;;;6.45;70.74;100258.09;5073683;28;19916;-76
2023/12/06 00:26:53;;;;;;;;;;;;;;;6.53;70.99;100264.72;5060367;28;19916;-77
2023/12/06 00:29:45;;;;;;;;;;;;;;;6.52;71.63;100260.41;5059402;28;19917;-77
2023/12/06 00:32:37;;;;;;;;;;;;;;;6.47;70.88;100274.81;5077970;28;19925;-76
2023/12/06 00:35:28;;;;;;;;;;;;;;;6.33;72.23;100272.09;5075040;28;20381;-76
2023/12/06 00:38:20;;;;;;;;;;;;;;;6.45;71.25;100268.91;5072010;28;19916;-75
2023/12/06 00:41:12;;;;;;;;;;;;;;;6.34;71.01;100281.81;5072332;28;19968;-76
2023/12/06 00:44:02;;;;;;;;;;;;;;;6.40;71.36;100266.28;5073195;28;20373;-77
2023/12/06 00:46:54;;;;;;;;;;;;;;;6.53;71.37;100268.22;5071504;28;20396;-76
2023/12/06 00:49:46;;;;;;;;;;;;;;;6.55;71.21;100263.34;5071383;28;19917;-76
2023/12/06 00:52:38;;;;;;;;;;;;;;;6.45;70.73;100268.91;5059736;28;20384;-77
2023/12/06 00:55:30;;;;;;;;;;;;;;;6.34;70.92;100281.00;5072526;28;19916;-76
2023/12/06 00:58:22;;;;;;;;;;;;;;;6.20;70.53;100270.16;5062127;28;19916;-76
2023/12/06 01:01:09;;;;;;;;;;;;;;;6.28;70.60;100268.69;5059680;28;19916;-76
2023/12/06 01:04:01;;;;;;;;;;;;;;;6.25;71.30;100266.56;5077552;28;19916;-77
2023/12/06 01:06:51;;;;;;;;;;;;;;;6.19;71.26;100259.69;5072160;28;19917;-76
2023/12/06 01:09:43;;;;;;;;;;;;;;;6.08;71.69;100264.44;5072951;28;19921;-77
2023/12/06 01:12:32;;;;;;;;;;;;;;;6.14;71.29;100271.38;5076510;28;19920;-77
2023/12/06 01:15:24;;;;;;;;;;;;;;;6.12;70.97;100264.66;5073721;28;20304;-77
2023/12/06 01:18:16;;;;;;;;;;;;;;;6.14;71.12;100262.47;5072405;28;20021;-75
2023/12/06 01:21:08;;;;;;;;;;;;;;;5.94;71.92;100269.78;5076231;28;19920;-76
2023/12/06 01:24:00;;;;;;;;;;;;;;;5.84;72.70;100274.53;5074098;28;19917;-75
2023/12/06 01:26:53;;;;;;;;;;;;;;;5.87;71.60;100272.09;5072731;28;19921;-77
2023/12/06 01:29:44;;;;;;;;;;;;;;;5.76;72.73;100267.09;5071268;28;20377;-76
2023/12/06 01:32:36;;;;;;;;;;;;;;;5.66;72.16;100269.97;5072492;28;19916;-76
2023/12/06 01:35:28;;;;;;;;;;;;;;;5.67;73.00;100256.19;5076006;28;19920;-76
2023/12/06 01:38:21;;;;;;;;;;;;;;;5.60;73.07;100266.53;5071386;28;19916;-76
2023/12/06 01:41:14;;;;;;;;;;;;;;;5.66;72.23;100261.88;5059208;28;19917;-76
2023/12/06 01:44:03;;;;;;;;;;;;;;;5.59;71.58;100262.22;5062568;28;19916;-76
2023/12/06 01:46:53;;;;;;;;;;;;;;;5.38;72.80;100261.75;5073294;28;19916;-77
2023/12/06 01:49:42;;;;;;;;;;;;;;;5.27;72.83;100262.19;5076808;28;19920;-76
2023/12/06 01:52:32;;;;;;;;;;;;;;;5.37;72.80;100256.66;5066825;28;20540;-77
2023/12/06 01:55:24;;;;;;;;;;;;;;;5.41;73.20;100253.06;5078600;28;19920;-76
2023/12/06 01:58:16;;;;;;;;;;;;;;;5.38;72.84;100250.16;5063098;28;19916;-77
2023/12/06 02:01:08;;;;;;;;;;;;;;;5.50;72.10;100255.91;5077340;28;19920;-76
2023/12/06 02:03:57;;;;;;;;;;;;;;;5.35;72.09;100248.03;5076993;28;19920;-77
2023/12/06 02:06:47;;;;;;;;;;;;;;;5.28;71.92;100253.00;5066803;28;19920;-76
2023/12/06 02:09:39;;;;;;;;;;;;;;;4.89;73.40;100227.09;5076310;28;19921;-77
2023/12/06 02:12:31;;;;;;;;;;;;;;;5.08;73.22;100246.78;5076876;28;19916;-76
2023/12/06 02:15:18;;;;;;;;;;;;;;;5.05;73.29;100239.28;5077290;28;19917;-76
2023/12/06 02:18:07;;;;;;;;;;;;;;;5.05;74.33;100242.00;5077511;28;19921;-75
2023/12/06 02:21:00;;;;;;;;;;;;;;;5.04;73.52;100239.56;5082814;28;19916;-78
2023/12/06 02:23:53;;;;;;;;;;;;;;;5.24;73.56;100247.38;5080626;28;19921;-77
2023/12/06 02:26:45;;;;;;;;;;;;;;;5.24;72.82;100228.50;5064524;28;19917;-76
2023/12/06 02:29:37;;;;;;;;;;;;;;;5.38;72.82;100225.91;5080702;28;19924;-78
2023/12/06 02:32:30;;;;;;;;;;;;;;;5.35;72.96;100216.50;5065516;28;19920;-76
2023/12/06 02:35:26;;;;;;;;;;;;;;;5.39;71.79;100217.50;5078292;28;20389;-76
2023/12/06 02:38:18;;;;;;;;;;;;;;;5.30;70.80;100208.47;5075705;28;19916;-77
2023/12/06 02:41:16;;;;;;;;;;;;;;;5.26;71.95;100210.16;5077790;28;19936;-76
2023/12/06 02:44:08;;;;;;;;;;;;;;;5.12;71.08;100204.72;5080869;28;19917;-77
2023/12/06 02:47:01;;;;;;;;;;;;;;;5.11;71.69;100211.19;5064162;28;19920;-76
2023/12/06 02:49:53;;;;;;;;;;;;;;;5.18;72.55;100203.53;5076884;28;20344;-77
2023/12/06 02:52:42;;;;;;;;;;;;;;;5.30;70.95;100203.09;5079159;28;19916;-77
2023/12/06 02:55:32;;;;;;;;;;;;;;;5.24;71.85;100198.06;5075586;28;19924;-77
2023/12/06 02:58:24;;;;;;;;;;;;;;;5.24;71.83;100192.66;5065942;28;19917;-75
2023/12/06 03:01:13;;;;;;;;;;;;;;;5.32;71.51;100190.13;5077674;28;19920;-75
2023/12/06 03:04:05;;;;;;;;;;;;;;;5.37;71.92;100197.34;5075388;28;20373;-77
2023/12/06 03:06:57;;;;;;;;;;;;;;;5.33;70.57;100193.63;5079302;28;19916;-77
2023/12/06 03:09:46;;;;;;;;;;;;;;;5.34;70.84;100196.00;5079181;28;19924;-76
2023/12/06 03:12:35;;;;;;;;;;;;;;;5.46;70.06;100200.97;5076192;28;19917;-77
2023/12/06 03:15:28;;;;;;;;;;;;;;;5.55;70.42;100193.81;5079717;28;19920;-75
2023/12/06 03:18:20;;;;;;;;;;;;;;;5.57;70.11;100192.44;5075805;28;19917;-76
2023/12/06 03:21:12;;;;;;;;;;;;;;;5.67;70.18;100190.66;5075819;28;19920;-77
2023/12/06 03:24:07;;;;;;;;;;;;;;;5.56;70.55;100195.41;5065572;28;19925;-76
2023/12/06 03:26:59;;;;;;;;;;;;;;;5.53;69.52;100196.81;5076012;28;19916;-77
2023/12/06 03:29:51;;;;;;;;;;;;;;;5.57;69.87;100197.81;5074750;28;19920;-75
2023/12/06 03:32:43;;;;;;;;;;;;;;;5.46;69.77;100195.56;5077983;28;19916;-77
2023/12/06 03:35:35;;;;;;;;;;;;;;;5.56;69.74;100192.72;5062096;28;19916;-76
2023/12/06 03:38:29;;;;;;;;;;;;;;;5.52;70.16;100186.31;5078958;28;19916;-77
2023/12/06 03:41:19;;;;;;;;;;;;;;;5.37;68.92;100183.84;5075633;28;19916;-77
2023/12/06 03:44:08;;;;;;;;;;;;;;;5.30;69.18;100191.50;5074280;28;20301;-76
2023/12/06 03:47:00;;;;;;;;;;;;;;;5.36;69.41;100191.16;5064394;28;19916;-77
2023/12/06 03:53:37;;;;;;;;;;;;;;;5.40;70.35;100185.97;5082338;22;19928;-82
2023/12/06 03:56:29;;;;;;;;;;;;;;;5.39;70.13;100178.97;5061878;28;19920;-82
2023/12/06 03:59:21;;;;;;;;;;;;;;;5.37;69.83;100183.84;5059345;28;19917;-82
2023/12/06 04:02:13;;;;;;;;;;;;;;;5.35;69.72;100176.06;5051570;28;19918;-82
2023/12/06 04:05:03;;;;;;;;;;;;;;;5.39;70.19;100174.38;5026861;28;19921;-82
2023/12/06 04:07:52;;;;;;;;;;;;;;;5.33;69.56;100172.88;5020802;28;20529;-82
2023/12/06 04:10:44;;;;;;;;;;;;;;;5.18;69.48;100167.72;5037172;28;19917;-82
2023/12/06 04:13:39;;;;;;;;;;;;;;;5.27;69.19;100181.31;5024220;28;19921;-82
2023/12/06 04:16:31;;;;;;;;;;;;;;;5.36;68.81;100185.75;5024220;28;20302;-81
2023/12/06 04:19:26;;;;;;;;;;;;;;;4.64;69.07;100184.34;5040479;28;19917;-82
2023/12/06 04:22:19;;;;;;;;;;;;;;;4.85;69.63;100182.19;5035466;28;19921;-82
2023/12/06 04:25:08;;;;;;;;;;;;;;;4.96;70.58;100175.56;5022147;28;20333;-82
2023/12/06 04:27:58;;;;;;;;;;;;;;;5.12;70.31;100185.03;5037261;28;19925;-83
2023/12/06 04:30:50;;;;;;;;;;;;;;;5.08;69.52;100192.09;5037877;28;20382;-82
2023/12/06 04:33:37;;;;;;;;;;;;;;;4.97;67.90;100193.34;5037053;28;19921;-82
2023/12/06 04:36:26;;;;;;;;;;;;;;;4.97;70.21;100183.38;5054187;28;19920;-82
2023/12/06 04:39:15;;;;;;;;;;;;;;;4.73;69.91;100183.41;5050963;28;19917;-82
2023/12/06 04:42:07;;;;;;;;;;;;;;;4.95;70.38;100185.53;5054557;28;19921;-81
2023/12/06 04:44:59;;;;;;;;;;;;;;;4.86;69.73;100187.28;5037374;28;19917;-81
2023/12/06 04:47:51;;;;;;;;;;;;;;;5.02;70.09;100186.00;5056240;28;19917;-81
2023/12/06 04:50:43;;;;;;;;;;;;;;;5.04;70.09;100196.47;5040811;28;19917;-81
2023/12/06 04:53:33;;;;;;;;;;;;;;;5.02;69.85;100187.88;5037795;28;19917;-81
2023/12/06 04:56:25;;;;;;;;;;;;;;;5.00;69.65;100193.56;5055926;28;19917;-82
2023/12/06 04:59:17;;;;;;;;;;;;;;;5.10;69.34;100204.19;5053486;28;19937;-82
2023/12/06 05:02:07;;;;;;;;;;;;;;;5.12;67.83;100215.50;5051457;28;20374;-81
2023/12/06 05:04:56;;;;;;;;;;;;;;;4.76;68.48;100213.56;5039203;28;19917;-82
2023/12/06 05:07:48;;;;;;;;;;;;;;;4.41;69.37;100220.16;5035246;28;19921;-82
2023/12/06 05:10:38;;;;;;;;;;;;;;;4.22;70.37;100215.50;5032901;28;20306;-82
2023/12/06 05:13:30;;;;;;;;;;;;;;;4.20;71.06;100219.59;5033457;28;19921;-80
2023/12/06 05:16:21;;;;;;;;;;;;;;;4.43;71.63;100209.91;5043787;28;19917;-81
2023/12/06 05:19:13;;;;;;;;;;;;;;;4.62;71.83;100218.84;5047714;28;19921;-82
2023/12/06 05:22:05;;;;;;;;;;;;;;;4.69;70.91;100221.97;5030390;28;19917;-82
2023/12/06 05:24:57;;;;;;;;;;;;;;;4.84;70.11;100216.41;5063101;28;20398;-81
2023/12/06 05:27:49;;;;;;;;;;;;;;;4.81;69.41;100214.28;5040695;28;19951;-83
2023/12/06 05:30:41;;;;;;;;;;;;;;;4.88;69.41;100222.81;5034549;28;19917;-82
2023/12/06 05:33:33;;;;;;;;;;;;;;;4.99;68.19;100226.97;5038386;28;19917;-82
2023/12/06 05:36:20;;;;;;;;;;;;;;;4.97;68.54;100229.19;5037143;28;19917;-82
2023/12/06 05:39:12;;;;;;;;;;;;;;;4.89;67.66;100229.81;5025860;28;19917;-81
2023/12/06 05:41:59;;;;;;;;;;;;;;;5.00;66.69;100235.88;5043480;28;19917;-81
2023/12/06 05:44:48;;;;;;;;;;;;;;;4.96;67.13;100235.66;5055222;28;19917;-82
2023/12/06 05:47:40;;;;;;;;;;;;;;;4.72;67.86;100237.59;5038739;28;19917;-81
2023/12/06 05:50:32;;;;;;;;;;;;;;;4.81;68.61;100235.84;5042343;28;19921;-82
2023/12/06 05:53:22;;;;;;;;;;;;;;;4.80;67.96;100234.25;5036839;28;19917;-81
2023/12/06 05:56:11;;;;;;;;;;;;;;;4.81;67.84;100237.72;5037812;28;19917;-82
2023/12/06 05:59:00;;;;;;;;;;;;;;;4.84;67.70;100235.25;5036770;28;20297;-84
2023/12/06 06:01:52;;;;;;;;;;;;;;;4.86;67.58;100234.97;5039912;28;20406;-82
2023/12/06 06:04:44;;;;;;;;;;;;;;;4.80;67.94;100236.13;5063798;28;19917;-82
2023/12/06 06:07:36;;;;;;;;;;;;;;;4.80;67.98;100242.31;5054101;28;19917;-81
2023/12/06 06:10:29;;;;;;;;;;;;;;;4.79;68.25;100243.41;5035481;28;19921;-83
2023/12/06 06:13:21;;;;;;;;;;;;;;;4.84;68.30;100243.34;5032462;28;19925;-83
2023/12/06 06:16:14;;;;;;;;;;;;;;;4.81;67.45;100249.31;5051125;28;19917;-82
2023/12/06 06:19:03;;;;;;;;;;;;;;;4.79;66.90;100250.69;5035978;28;19918;-83
2023/12/06 06:21:50;;;;;;;;;;;;;;;4.47;66.66;100259.41;5035361;28;20394;-81
2023/12/06 06:24:42;;;;;;;;;;;;;;;4.49;68.69;100265.28;5036981;28;19917;-82
2023/12/06 06:27:37;;;;;;;;;;;;;;;4.53;67.29;100271.72;5037295;28;19917;-81
2023/12/06 06:30:29;;;;;;;;;;;;;;;4.39;69.31;100279.66;5038101;28;19921;-83
2023/12/06 06:33:21;;;;;;;;;;;;;;;4.47;69.28;100279.03;5037964;28;19917;-82
2023/12/06 06:36:13;;;;;;;;;;;;;;;4.58;69.97;100287.81;5035155;28;19917;-82
2023/12/06 06:39:02;;;;;;;;;;;;;;;4.61;69.87;100282.66;5027906;28;19917;-82
2023/12/06 06:41:55;;;;;;;;;;;;;;;4.66;69.72;100289.88;5037359;28;19917;-82
2023/12/06 06:44:47;;;;;;;;;;;;;;;4.71;70.41;100293.34;5038215;28;19925;-82
2023/12/06 06:47:43;;;;;;;;;;;;;;;4.88;70.81;100300.13;5040132;28;19916;-81
2023/12/06 06:50:35;;;;;;;;;;;;;;;4.93;70.39;100300.88;5040179;28;19921;-82
2023/12/06 06:53:24;;;;;;;;;;;;;;;4.73;68.77;100301.91;5039336;28;19917;-82
2023/12/06 06:56:16;;;;;;;;;;;;;;;4.70;68.89;100307.06;5041859;28;20302;-82
2023/12/06 06:59:09;;;;;;;;;;;;;;;4.73;69.04;100306.50;5039603;28;19921;-82
2023/12/06 07:02:02;;;;;;;;;;;;;;;4.69;68.68;100310.84;5042839;28;19917;-82
2023/12/06 07:04:52;;;;;;;;;;;;;;;4.54;69.44;100325.28;5040736;28;19921;-82
2023/12/06 07:07:44;;;;;;;;;;;;;;;4.58;70.43;100325.50;5037213;28;19917;-82
2023/12/06 07:10:37;;;;;;;;;;;;;;;4.65;69.19;100331.38;5038528;28;19925;-82
2023/12/06 07:13:26;;;;;;;;;;;;;;;4.58;68.09;100330.88;5038823;28;20302;-81
2023/12/06 07:16:18;;;;;;;;;;;;;;;4.60;67.61;100331.41;5039622;28;19921;-82
2023/12/06 07:19:10;;;;;;;;;;;;;;;4.52;68.01;100340.13;5037865;28;20294;-81
2023/12/06 07:22:03;;;;;;;;;;;;;;;4.54;68.03;100354.09;5039043;28;19917;-82
2023/12/06 07:24:52;;;;;;;;;;;;;;;4.59;68.45;100354.03;5037821;28;19917;-83
2023/12/06 07:27:44;;;;;;;;;;;;;;;4.49;67.94;100357.63;5039919;28;19917;-83
2023/12/06 07:30:36;;;;;;;;;;;;;;;4.56;68.01;100360.00;5040001;28;19929;-81
2023/12/06 07:33:26;;;;;;;;;;;;;;;4.52;68.10;100358.97;5032706;28;19921;-81
2023/12/06 07:36:15;;;;;;;;;;;;;;;4.59;68.71;100362.13;5025604;28;20422;-82
2023/12/06 07:39:02;;;;;;;;;;;;;;;4.73;68.35;100365.75;5037293;28;20382;-82
2023/12/06 07:41:54;;;;;;;;;;;;;;;4.71;68.71;100366.03;5038737;28;19921;-82
2023/12/06 07:44:43;;;;;;;;;;;;;;;4.78;68.76;100363.00;5025473;28;20402;-82
2023/12/06 07:47:36;;;;;;;;;;;;;;;4.83;68.60;100362.94;5022294;28;20533;-83
2023/12/06 07:50:23;;;;;;;;;;;;;;;4.80;68.76;100374.28;5058560;28;19921;-83
2023/12/06 07:53:15;;;;;;;;;;;;;;;4.60;68.71;100387.97;5031521;28;20398;-83
2023/12/06 07:56:06;;;;;;;;;;;;;;;4.81;69.10;100389.38;5031271;28;19917;-83
2023/12/06 07:58:56;;;;;;;;;;;;;;;4.84;68.25;100380.72;5061114;28;19917;-82
2023/12/06 08:01:48;;;;;;;;;;;;;;;4.85;68.79;100392.28;5021011;28;19921;-83
2023/12/06 08:04:38;;;;;;;;;;;;;;;4.79;68.29;100402.31;5041119;28;19921;-83
2023/12/06 08:07:27;;;;;;;;;;;;;;;4.86;68.64;100396.59;5033857;28;20317;-83
2023/12/06 08:10:22;;;;;;;;;;;;;;;4.93;67.45;100397.84;5038442;28;20383;-82
2023/12/06 08:13:14;;;;;;;;;;;;;;;4.95;67.79;100408.34;5024395;28;19917;-84
2023/12/06 08:16:05;;;;;;;;;;;;;;;4.90;67.54;100411.09;5062031;28;19917;-83
2023/12/06 08:18:55;;;;;;;;;;;;;;;4.82;68.36;100411.72;5037811;28;19917;-85
2023/12/06 08:21:47;;;;;;;;;;;;;;;4.42;70.95;100416.38;5024112;28;19917;-80
2023/12/06 08:24:39;;;;;;;;;;;;;;;4.74;71.63;100413.13;5038506;28;19921;-84
2023/12/06 08:27:34;;;;;;;;;;;;;;;4.82;70.27;100412.53;5033099;28;20375;-83
2023/12/06 08:30:26;;;;;;;;;;;;;;;4.88;69.75;100410.56;5034884;28;19921;-83
2023/12/06 08:33:18;;;;;;;;;;;;;;;4.87;70.02;100412.50;5037383;28;19921;-84
2023/12/06 08:36:09;;;;;;;;;;;;;;;4.88;69.82;100411.38;5035462;28;20305;-84
2023/12/06 08:38:59;;;;;;;;;;;;;;;4.94;70.29;100431.00;5028679;28;19921;-82
2023/12/06 08:41:54;;;;;;;;;;;;;;;5.00;70.61;100416.38;5055598;28;19917;-83
2023/12/06 08:44:45;;;;;;;;;;;;;;;5.01;70.87;100410.72;5053459;28;19917;-84
2023/12/06 08:47:35;;;;;;;;;;;;;;;5.10;71.74;100418.97;5021964;28;19917;-83
2023/12/06 08:50:30;;;;;;;;;;;;;;;5.12;71.23;100428.38;5031198;28;19921;-85
2023/12/06 08:53:20;;;;;;;;;;;;;;;5.18;71.32;100432.63;5042275;28;19917;-85
2023/12/06 08:56:07;;;;;;;;;;;;;;;5.28;71.94;100430.91;5041575;28;19917;-86
2023/12/06 08:58:56;;;;;;;;;;;;;;;5.47;71.74;100421.78;5025525;28;19921;-86
2023/12/06 09:01:51;;;;;;;;;;;;;;;5.60;71.45;100425.66;5038490;28;19917;-86
2023/12/06 09:04:40;;;;;;;;;;;;;;;5.66;71.48;100438.00;5038440;28;20298;-84
2023/12/06 09:07:27;;;;;;;;;;;;;;;5.70;72.36;100433.63;5039774;28;20374;-85
2023/12/06 09:10:19;;;;;;;;;;;;;;;5.84;71.67;100433.72;5032997;28;19921;-85
2023/12/06 09:13:16;;;;;;;;;;;;;;;5.93;71.78;100432.81;5031016;28;19926;-86
2023/12/06 09:16:08;;;;;;;;;;;;;;;5.98;71.67;100430.03;5030588;28;20325;-85
2023/12/06 09:19:00;;;;;;;;;;;;;;;6.13;71.68;100430.91;5037724;28;20290;-85
2023/12/06 09:21:52;;;;;;;;;;;;;;;6.18;71.52;100431.66;5040928;28;19921;-85
2023/12/06 09:24:44;;;;;;;;;;;;;;;6.20;72.33;100439.44;5037420;28;19917;-83
2023/12/06 09:27:37;;;;;;;;;;;;;;;6.20;71.86;100434.84;5041191;28;19917;-85
2023/12/06 09:30:29;;;;;;;;;;;;;;;6.25;71.95;100440.16;5036412;28;19925;-85
2023/12/06 09:33:18;;;;;;;;;;;;;;;6.29;72.19;100443.09;5022339;28;19921;-86
2023/12/06 09:36:08;;;;;;;;;;;;;;;6.34;71.91;100441.13;5039164;28;19925;-85
2023/12/06 09:39:01;;;;;;;;;;;;;;;6.40;71.46;100441.81;5025626;28;19917;-84
2023/12/06 09:41:52;;;;;;;;;;;;;;;6.51;71.38;100437.06;5038781;28;19925;-86
2023/12/06 09:44:43;;;;;;;;;;;;;;;6.62;70.95;100427.69;5041062;28;20398;-86
2023/12/06 09:47:34;;;;;;;;;;;;;;;6.63;70.63;100430.13;5038428;28;20290;-86
2023/12/06 09:50:26;;;;;;;;;;;;;;;6.73;70.21;100429.94;5041356;28;19921;-85
2023/12/06 09:53:16;;;;;;;;;;;;;;;6.79;69.69;100430.66;5023750;28;19925;-85
2023/12/06 09:56:08;;;;;;;;;;;;;;;6.94;68.85;100429.59;5036562;28;19921;-86
2023/12/06 09:59:01;;;;;;;;;;;;;;;7.12;67.22;100426.00;5027180;28;19928;-87
2023/12/06 10:01:56;;;;;;;;;;;;;;;7.32;67.05;100417.50;5025107;28;19917;-85
2023/12/06 10:04:49;;;;;;;;;;;;;;;7.52;66.61;100417.09;5027036;28;19917;-85
2023/12/06 10:07:39;;;;;;;;;;;;;;;7.71;65.77;100417.78;5035747;28;19921;-85
2023/12/06 10:10:31;;;;;;;;;;;;;;;7.98;65.37;100421.53;5026336;28;19921;-84
2023/12/06 10:13:35;;;;;;;;;;;;;;;8.20;64.26;100413.44;5038973;28;19917;-85
2023/12/06 10:16:27;;;;;;;;;;;;;;;8.49;63.78;100410.31;5035067;28;19917;-85
2023/12/06 10:19:19;;;;;;;;;;;;;;;8.68;63.02;100410.16;5030978;28;20301;-85
2023/12/06 10:22:11;;;;;;;;;;;;;;;8.90;62.82;100420.94;5056698;28;19917;-86
2023/12/06 10:25:03;;;;;;;;;;;;;;;9.12;62.54;100415.47;5039406;28;19917;-85
2023/12/06 10:28:01;;;;;;;;;;;;;;;9.35;62.25;100422.41;5057134;28;19921;-85
2023/12/06 10:31:06;;;;;;;;;;;;;;;9.60;61.38;100411.97;5081779;28;19925;-88
2023/12/06 10:33:58;;;;;;;;;;;;;;;9.73;60.48;100406.41;5073513;28;19921;-89
2023/12/06 10:36:50;;;;;;;;;;;;;;;9.94;60.03;100406.59;5059214;28;19917;-88
2023/12/06 10:39:44;;;;;;;;;;;;;;;10.15;59.67;100404.84;5073452;28;19901;-88
2023/12/06 10:42:40;;;;;;;;;;;;;;;10.24;59.38;100404.88;5069896;28;19921;-89
2023/12/06 10:45:33;;;;;;;;;;;;;;;10.42;58.66;100402.94;5054694;28;19917;-86
2023/12/06 10:48:24;;;;;;;;;;;;;;;10.62;58.40;100408.50;5050505;28;19920;-89
2023/12/06 10:51:13;;;;;;;;;;;;;;;10.79;57.56;100410.41;5047171;28;19921;-92
2023/12/06 10:54:06;;;;;;;;;;;;;;;10.95;57.74;100407.94;5059504;28;19917;-87
2023/12/06 10:56:58;;;;;;;;;;;;;;;11.11;56.52;100404.38;5057209;28;19917;-88
2023/12/06 10:59:49;;;;;;;;;;;;;;;11.19;56.84;100401.94;5066591;28;19917;-87
2023/12/06 11:02:41;;;;;;;;;;;;;;;11.29;56.26;100391.47;5053933;28;20397;-87
2023/12/06 11:05:30;;;;;;;;;;;;;;;11.42;56.26;100403.28;5051727;28;20386;-90
2023/12/06 11:08:51;;;;;;;;;;;;;;;11.54;55.32;100398.72;5056246;28;19917;-90
2023/12/06 11:11:41;;;;;;;;;;;;;;;11.76;55.28;100402.31;5052360;28;19921;-87
2023/12/06 11:14:34;;;;;;;;;;;;;;;11.86;54.63;100397.28;5067341;28;20313;-88
2023/12/06 11:17:35;;;;;;;;;;;;;;;12.02;53.83;100391.22;5065055;28;20282;-87
2023/12/06 11:20:20;;;;;;;;;;;;;;;12.00;52.90;100389.63;5056347;28;20386;-87
2023/12/06 11:23:12;;;;;;;;;;;;;;;12.18;52.91;100400.41;5052104;28;19917;-88
2023/12/06 11:26:04;;;;;;;;;;;;;;;12.28;52.92;100395.34;5056153;28;19921;-87
2023/12/06 11:28:54;;;;;;;;;;;;;;;12.26;53.02;100403.03;5051104;28;19917;-86
2023/12/06 11:31:56;;;;;;;;;;;;;;;12.36;52.16;100390.94;5050536;28;19932;-87
2023/12/06 11:34:56;;;;;;;;;;;;;;;12.49;51.71;100389.06;5070205;28;19921;-88
2023/12/06 11:37:50;;;;;;;;;;;;;;;12.46;51.55;100395.16;5067362;28;19917;-89
2023/12/06 11:40:49;;;;;;;;;;;;;;;12.62;51.90;100394.22;5050681;28;19917;-89
2023/12/06 11:43:43;;;;;;;;;;;;;;;12.51;51.45;100395.75;5044426;28;19921;-90
2023/12/06 11:46:32;;;;;;;;;;;;;;;12.73;51.51;100400.84;5072287;28;19917;-89
2023/12/06 11:49:22;;;;;;;;;;;;;;;12.82;50.66;100403.47;5040995;28;19921;-88
2023/12/06 11:52:18;;;;;;;;;;;;;;;12.91;50.17;100392.44;5047256;28;19916;-88
2023/12/06 11:55:09;;;;;;;;;;;;;;;12.89;49.88;100397.47;5038105;28;19921;-87
2023/12/06 11:58:06;;;;;;;;;;;;;;;13.04;49.22;100399.53;5042583;28;19917;-88
2023/12/06 12:01:02;;;;;;;;;;;;;;;13.06;48.98;100392.59;5050453;28;19920;-92
2023/12/06 12:03:55;;;;;;;;;;;;;;;13.20;48.88;100398.56;5047800;28;19917;-88
2023/12/06 12:06:53;;;;;;;;;;;;;;;13.18;48.94;100394.56;5036363;28;19917;-88
2023/12/06 12:09:46;;;;;;;;;;;;;;;13.25;49.03;100400.28;5054757;28;19912;-88
2023/12/06 12:12:37;;;;;;;;;;;;;;;13.24;48.87;100396.75;5039838;28;19917;-88
2023/12/06 12:15:30;;;;;;;;;;;;;;;13.06;48.86;100399.97;5050898;28;20511;-89
2023/12/06 12:18:22;;;;;;;;;;;;;;;13.32;48.14;100400.50;5048604;28;19928;-87
2023/12/06 12:21:18;;;;;;;;;;;;;;;13.36;48.42;100397.91;5043162;28;19917;-89
2023/12/06 12:24:05;;;;;;;;;;;;;;;13.07;48.65;100393.38;5054798;28;19917;-88
2023/12/06 12:26:54;;;;;;;;;;;;;;;13.06;48.81;100397.25;5069138;28;19946;-89
2023/12/06 12:29:54;;;;;;;;;;;;;;;13.34;48.09;100390.03;5057987;28;19922;-90
2023/12/06 12:32:48;;;;;;;;;;;;;;;13.52;47.89;100388.66;5070070;28;19917;-91
2023/12/06 12:35:37;;;;;;;;;;;;;;;13.48;47.81;100398.69;5055925;28;19905;-90
2023/12/06 12:38:27;;;;;;;;;;;;;;;13.40;47.25;100393.34;5072818;28;19928;-90
2023/12/06 12:41:17;;;;;;;;;;;;;;;13.96;46.37;100397.03;5084911;28;19905;-87
2023/12/06 12:44:09;;;;;;;;;;;;;;;13.71;46.84;100404.47;5072308;28;19921;-89
2023/12/06 12:46:56;;;;;;;;;;;;;;;13.45;47.92;100398.56;5045699;28;19921;-89
2023/12/06 12:49:48;;;;;;;;;;;;;;;13.51;47.52;100408.91;5068326;28;19921;-88
2023/12/06 12:52:33;;;;;;;;;;;;;;;13.65;47.57;100406.63;5053763;28;19917;-86
2023/12/06 12:55:27;;;;;;;;;;;;;;;14.13;47.17;100403.00;5055421;28;19917;-89
2023/12/06 12:58:17;;;;;;;;;;;;;;;13.91;46.59;100400.00;5040950;28;19917;-88
2023/12/06 13:01:07;;;;;;;;;;;;;;;14.25;45.88;100393.97;5044741;28;19917;-89
2023/12/06 13:04:01;;;;;;;;;;;;;;;13.60;46.50;100397.88;5049677;28;19917;-87
2023/12/06 13:06:55;;;;;;;;;;;;;;;13.46;47.14;100406.41;5062622;28;19921;-88
2023/12/06 13:09:44;;;;;;;;;;;;;;;13.51;46.94;100397.22;5034389;28;19909;-90
2023/12/06 13:12:34;;;;;;;;;;;;;;;13.33;47.43;100410.28;5035694;28;20408;-86
2023/12/06 13:15:20;;;;;;;;;;;;;;;13.37;48.01;100407.66;5048171;28;19917;-87
2023/12/06 13:18:12;;;;;;;;;;;;;;;13.41;47.67;100411.31;5032165;28;19917;-88
2023/12/06 13:21:00;;;;;;;;;;;;;;;13.19;48.30;100415.28;5040357;28;19921;-89
2023/12/06 13:23:46;;;;;;;;;;;;;;;13.22;48.19;100415.38;5032024;28;19921;-88
2023/12/06 13:26:38;;;;;;;;;;;;;;;13.00;47.55;100410.34;5038901;28;20441;-89
2023/12/06 13:29:28;;;;;;;;;;;;;;;13.13;48.70;100409.25;5050819;28;19921;-90
2023/12/06 13:32:15;;;;;;;;;;;;;;;13.32;48.72;100411.41;5038215;28;19905;-89
2023/12/06 13:35:00;;;;;;;;;;;;;;;13.15;48.44;100411.66;5053265;28;19917;-90
2023/12/06 13:37:47;;;;;;;;;;;;;;;13.24;48.14;100417.78;5041417;28;19921;-90
2023/12/06 13:40:39;;;;;;;;;;;;;;;13.25;47.99;100413.94;5038825;28;19913;-91
2023/12/06 13:43:28;;;;;;;;;;;;;;;13.17;47.89;100410.16;5052040;28;20126;-88
2023/12/06 13:46:18;;;;;;;;;;;;;;;13.12;49.13;100412.31;5056988;28;19925;-89
2023/12/06 13:49:10;;;;;;;;;;;;;;;13.10;48.86;100417.28;5058074;28;19917;-89
2023/12/06 13:52:02;;;;;;;;;;;;;;;13.23;48.29;100424.38;5037744;28;19917;-87
2023/12/06 13:54:54;;;;;;;;;;;;;;;13.37;48.16;100413.13;5042560;28;19902;-88
2023/12/06 13:57:43;;;;;;;;;;;;;;;13.26;48.43;100418.22;5062620;28;19917;-88
2023/12/06 14:00:35;;;;;;;;;;;;;;;13.48;48.45;100420.53;5083984;28;19917;-89
2023/12/06 14:03:27;;;;;;;;;;;;;;;13.53;48.06;100425.75;5052053;28;19917;-88
2023/12/06 14:06:16;;;;;;;;;;;;;;;13.57;47.34;100423.13;5052260;28;19925;-89
2023/12/06 14:09:08;;;;;;;;;;;;;;;13.61;47.41;100427.56;5058020;28;19925;-89
2023/12/06 14:12:01;;;;;;;;;;;;;;;13.52;47.06;100429.63;5056590;28;19925;-87
2023/12/06 14:14:54;;;;;;;;;;;;;;;13.54;47.26;100434.75;5042284;28;19917;-88
2023/12/06 14:17:46;;;;;;;;;;;;;;;13.56;47.50;100432.50;5044741;28;19922;-88
2023/12/06 14:20:31;;;;;;;;;;;;;;;13.57;47.74;100434.88;5038578;28;19901;-87
2023/12/06 14:23:23;;;;;;;;;;;;;;;13.60;46.80;100445.13;5038193;28;19925;-88
2023/12/06 14:26:14;;;;;;;;;;;;;;;13.47;47.20;100439.97;5046914;28;19917;-87
2023/12/06 14:29:03;;;;;;;;;;;;;;;13.43;47.46;100439.06;5036935;28;19921;-88
2023/12/06 14:31:53;;;;;;;;;;;;;;;13.34;47.92;100441.91;5041722;28;19921;-87
2023/12/06 14:34:45;;;;;;;;;;;;;;;13.39;47.04;100438.97;5043731;28;19917;-87
2023/12/06 14:37:34;;;;;;;;;;;;;;;13.31;47.53;100442.59;5033709;28;20413;-88
2023/12/06 14:40:26;;;;;;;;;;;;;;;13.28;47.53;100448.75;5039269;28;19921;-87
2023/12/06 14:43:21;;;;;;;;;;;;;;;13.28;47.43;100448.75;5038692;28;19917;-88
2023/12/06 14:46:14;;;;;;;;;;;;;;;13.23;48.74;100451.69;5044184;28;19917;-88
2023/12/06 14:49:01;;;;;;;;;;;;;;;13.06;49.30;100457.31;5031478;28;19917;-89
2023/12/06 14:51:53;;;;;;;;;;;;;;;13.01;49.98;100463.78;5053404;28;20399;-88